createdAt,value
2023-02-11T00:00:49.084Z,32.00
2023-02-11T00:02:01.591Z,36.10
2023-02-11T00:03:05.291Z,33.90
2023-02-11T00:04:09.112Z,35.10
2023-02-11T00:05:12.638Z,33.30
2023-02-11T00:06:16.574Z,33.80
2023-02-11T00:07:20.138Z,32.50
2023-02-11T00:08:23.667Z,33.20
2023-02-11T00:09:27.731Z,34.10
2023-02-11T00:10:32.194Z,34.20
2023-02-11T00:11:36.184Z,35.90
2023-02-11T00:12:39.802Z,35.10
2023-02-11T00:13:45.562Z,33.60
2023-02-11T00:14:49.419Z,34.00
2023-02-11T00:15:54.081Z,33.30
2023-02-11T00:16:57.746Z,31.50
2023-02-11T00:18:01.354Z,35.80
2023-02-11T00:19:06.599Z,37.20
2023-02-11T00:20:10.317Z,33.90
2023-02-11T00:21:19.647Z,33.00
2023-02-11T00:22:23.575Z,35.80
2023-02-11T00:23:27.310Z,34.30
2023-02-11T00:24:31.032Z,35.40
2023-02-11T00:25:40.766Z,33.90
2023-02-11T00:26:44.888Z,39.40
2023-02-11T00:27:48.456Z,32.20
2023-02-11T00:28:53.500Z,32.80
2023-02-11T00:29:57.100Z,35.30
2023-02-11T00:31:02.574Z,34.90
2023-02-11T00:32:08.724Z,37.70
2023-02-11T00:33:12.266Z,34.60
2023-02-11T00:34:15.794Z,36.20
2023-02-11T00:35:19.354Z,35.50
2023-02-11T00:36:25.374Z,33.50
2023-02-11T00:37:29.205Z,32.80
2023-02-11T00:38:32.751Z,36.60
2023-02-11T00:39:36.938Z,33.40
2023-02-11T00:40:40.498Z,36.90
2023-02-11T00:41:44.077Z,33.60
2023-02-11T00:42:49.691Z,32.90
2023-02-11T00:43:53.877Z,32.40
2023-02-11T00:44:57.675Z,37.10
2023-02-11T00:46:01.252Z,34.90
2023-02-11T00:47:04.845Z,36.40
2023-02-11T00:48:08.389Z,32.10
2023-02-11T00:49:11.947Z,32.70
2023-02-11T00:50:15.616Z,32.90
2023-02-11T00:51:19.137Z,31.10
2023-02-11T00:52:22.637Z,34.00
2023-02-11T00:53:26.565Z,36.20
2023-02-11T00:54:30.168Z,35.00
2023-02-11T00:55:34.264Z,35.30
2023-02-11T00:56:37.847Z,37.30
2023-02-11T00:57:41.467Z,34.90
2023-02-11T00:58:45.381Z,32.60
2023-02-11T00:59:48.948Z,32.10
2023-02-11T01:00:53.995Z,32.40
2023-02-11T01:01:57.675Z,33.50
2023-02-11T01:03:01.166Z,33.10
2023-02-11T01:04:05.201Z,33.80
2023-02-11T01:05:08.866Z,35.50
2023-02-11T01:06:12.986Z,32.20
2023-02-11T01:07:16.545Z,38.60
2023-02-11T01:08:20.457Z,34.00
2023-02-11T01:09:23.966Z,36.70
2023-02-11T01:10:28.665Z,33.80
2023-02-11T01:11:32.224Z,37.70
2023-02-11T01:12:36.646Z,36.10
2023-02-11T01:13:40.329Z,35.50
2023-02-11T01:14:43.980Z,37.30
2023-02-11T01:15:47.959Z,34.70
2023-02-11T01:16:51.731Z,34.70
2023-02-11T01:17:57.265Z,32.20
2023-02-11T01:19:00.768Z,33.90
2023-02-11T01:20:13.525Z,34.40
2023-02-11T01:21:17.018Z,32.50
2023-02-11T01:22:20.655Z,33.00
2023-02-11T01:23:24.281Z,37.90
2023-02-11T01:24:28.167Z,34.40
2023-02-11T01:25:31.733Z,31.90
2023-02-11T01:26:35.238Z,32.80
2023-02-11T01:27:39.036Z,34.20
2023-02-11T01:28:42.867Z,35.40
2023-02-11T01:29:46.345Z,35.00
2023-02-11T01:30:50.073Z,36.50
2023-02-11T01:31:53.751Z,35.30
2023-02-11T01:32:57.313Z,35.00
2023-02-11T01:34:00.949Z,33.40
2023-02-11T01:35:05.004Z,32.60
2023-02-11T01:36:08.811Z,35.50
2023-02-11T01:37:12.307Z,35.20
2023-02-11T01:38:19.285Z,33.50
2023-02-11T01:39:22.862Z,33.00
2023-02-11T01:40:26.648Z,32.90
2023-02-11T01:41:30.457Z,31.60
2023-02-11T01:42:34.584Z,31.30
2023-02-11T01:43:41.455Z,38.00
2023-02-11T01:44:45.170Z,33.70
2023-02-11T01:45:48.916Z,33.60
2023-02-11T01:46:53.107Z,34.30
2023-02-11T01:47:57.311Z,34.90
2023-02-11T01:49:16.655Z,31.50
2023-02-11T01:50:20.654Z,34.20
2023-02-11T01:51:29.861Z,34.50
2023-02-11T01:52:39.306Z,31.70
2023-02-11T01:54:03.340Z,33.10
2023-02-11T01:55:29.513Z,31.50
2023-02-11T01:56:55.896Z,28.30
2023-02-11T01:58:04.360Z,31.40
2023-02-11T01:59:15.448Z,32.60
2023-02-11T02:00:26.363Z,29.90
2023-02-11T02:01:33.965Z,31.30
2023-02-11T02:02:49.375Z,31.00
2023-02-11T02:03:58.597Z,31.50
2023-02-11T02:05:19.188Z,35.90
2023-02-11T02:06:29.372Z,32.80
2023-02-11T02:07:41.723Z,35.10
2023-02-11T02:08:55.468Z,33.00
2023-02-11T02:10:09.571Z,28.30
2023-02-11T02:11:13.373Z,33.50
2023-02-11T02:12:16.861Z,35.00
2023-02-11T02:13:20.863Z,34.40
2023-02-11T02:14:24.373Z,35.40
2023-02-11T02:15:33.736Z,33.60
2023-02-11T02:16:39.736Z,35.50
2023-02-11T02:17:59.617Z,32.20
2023-02-11T02:19:51.677Z,34.00
2023-02-11T02:21:27.451Z,34.10
2023-02-11T02:23:07.266Z,30.20
2023-02-11T02:24:42.167Z,29.10
2023-02-11T02:26:19.724Z,31.30
2023-02-11T02:27:36.051Z,27.30
2023-02-11T02:29:16.995Z,31.90
2023-02-11T02:30:42.288Z,30.70
2023-02-11T02:32:22.269Z,28.70
2023-02-11T02:33:54.556Z,27.20
2023-02-11T02:35:07.507Z,29.10
2023-02-11T02:36:37.036Z,30.50
2023-02-11T02:38:06.891Z,23.60
2023-02-11T02:39:24.048Z,29.20
2023-02-11T02:40:33.492Z,29.70
2023-02-11T02:41:39.167Z,29.20
2023-02-11T02:42:44.284Z,29.10
2023-02-11T02:43:50.031Z,34.90
2023-02-11T02:44:55.661Z,35.60
2023-02-11T02:46:19.907Z,36.80
2023-02-11T02:47:23.523Z,33.50
2023-02-11T02:48:32.485Z,37.90
2023-02-11T02:49:36.238Z,37.50
2023-02-11T02:52:14.024Z,31.30
2023-02-11T02:53:36.944Z,26.90
2023-02-11T02:55:09.638Z,25.50
2023-02-11T02:56:25.969Z,29.60
2023-02-11T02:57:37.292Z,31.80
2023-02-11T02:58:59.510Z,32.70
2023-02-11T03:00:14.785Z,33.10
2023-02-11T03:01:50.521Z,33.60
2023-02-11T03:03:18.138Z,33.90
2023-02-11T03:04:41.037Z,33.00
2023-02-11T03:06:04.292Z,38.30
2023-02-11T03:07:22.914Z,32.00
2023-02-11T03:08:39.008Z,33.40
2023-02-11T03:09:48.441Z,30.70
2023-02-11T03:10:53.923Z,38.80
2023-02-11T03:11:57.497Z,34.10
2023-02-11T03:13:03.305Z,37.70
2023-02-11T03:14:11.134Z,33.40
2023-02-11T03:15:17.440Z,32.40
2023-02-11T03:16:25.436Z,33.80
2023-02-11T03:17:30.657Z,33.50
2023-02-11T03:18:35.976Z,34.70
2023-02-11T03:19:43.725Z,33.50
2023-02-11T03:20:51.686Z,31.20
2023-02-11T03:21:56.775Z,33.50
2023-02-11T03:23:11.583Z,32.20
2023-02-11T03:24:29.264Z,32.80
2023-02-11T03:25:48.766Z,31.60
2023-02-11T03:26:55.009Z,32.90
2023-02-11T03:28:08.270Z,32.20
2023-02-11T03:29:34.153Z,32.00
2023-02-11T03:30:48.866Z,29.90
2023-02-11T03:32:16.286Z,32.00
2023-02-11T03:33:27.388Z,33.60
2023-02-11T03:34:35.421Z,33.40
2023-02-11T03:35:44.650Z,32.10
2023-02-11T03:36:56.982Z,32.30
2023-02-11T03:38:14.104Z,30.50
2023-02-11T03:39:52.012Z,33.70
2023-02-11T03:40:56.753Z,28.10
2023-02-11T03:42:02.674Z,28.70
2023-02-11T03:43:17.542Z,29.30
2023-02-11T03:44:24.004Z,26.50
2023-02-11T03:45:28.637Z,31.10
2023-02-11T03:46:35.472Z,32.30
2023-02-11T03:47:43.852Z,36.10
2023-02-11T03:48:52.272Z,31.80
2023-02-11T03:49:57.489Z,32.70
2023-02-11T03:51:05.451Z,32.70
2023-02-11T03:52:11.344Z,33.20
2023-02-11T03:53:15.958Z,30.00
2023-02-11T03:55:30.266Z,26.90
2023-02-11T03:56:39.368Z,30.90
2023-02-11T03:57:43.141Z,28.60
2023-02-11T03:58:48.412Z,28.10
2023-02-11T03:59:54.980Z,33.10
2023-02-11T04:00:58.640Z,32.00
2023-02-11T04:02:02.226Z,33.40
2023-02-11T04:03:06.589Z,34.60
2023-02-11T04:04:10.504Z,31.10
2023-02-11T04:05:16.123Z,32.80
2023-02-11T04:06:19.632Z,33.80
2023-02-11T04:07:23.522Z,33.60
2023-02-11T04:08:27.122Z,31.90
2023-02-11T04:09:30.612Z,37.60
2023-02-11T04:10:34.558Z,34.00
2023-02-11T04:11:38.577Z,34.70
2023-02-11T04:12:42.305Z,33.70
2023-02-11T04:13:45.887Z,35.30
2023-02-11T04:14:49.463Z,33.30
2023-02-11T04:15:53.357Z,32.00
2023-02-11T04:16:57.207Z,36.10
2023-02-11T04:18:00.769Z,31.00
2023-02-11T04:19:04.603Z,31.20
2023-02-11T04:20:09.194Z,33.80
2023-02-11T04:22:16.235Z,26.80
2023-02-11T04:23:19.851Z,33.30
2023-02-11T04:24:23.478Z,33.40
2023-02-11T04:25:27.232Z,34.40
2023-02-11T04:26:30.788Z,33.20
2023-02-11T04:27:37.376Z,32.60
2023-02-11T04:28:40.922Z,38.00
2023-02-11T04:29:44.778Z,35.00
2023-02-11T04:30:50.361Z,31.70
2023-02-11T04:31:54.340Z,33.70
2023-02-11T04:32:58.633Z,33.50
2023-02-11T04:34:02.164Z,35.50
2023-02-11T04:35:06.555Z,33.60
2023-02-11T04:36:10.158Z,34.70
2023-02-11T04:37:14.150Z,34.10
2023-02-11T04:38:17.760Z,34.90
2023-02-11T04:39:21.381Z,31.70
2023-02-11T04:40:24.942Z,34.40
2023-02-11T04:41:28.611Z,31.90
2023-02-11T04:42:32.348Z,32.40
2023-02-11T04:43:35.862Z,30.40
2023-02-11T04:44:39.364Z,33.40
2023-02-11T04:45:42.943Z,32.90
2023-02-11T04:46:46.555Z,32.40
2023-02-11T04:47:50.184Z,32.90
2023-02-11T04:48:54.146Z,30.30
2023-02-11T04:49:57.663Z,31.70
2023-02-11T04:51:02.328Z,34.50
2023-02-11T04:52:06.115Z,29.80
2023-02-11T04:53:09.624Z,31.20
2023-02-11T04:54:13.331Z,32.90
2023-02-11T04:55:16.863Z,31.30
2023-02-11T04:56:20.412Z,33.10
2023-02-11T04:57:23.969Z,31.70
2023-02-11T04:58:27.568Z,34.10
2023-02-11T04:59:31.080Z,31.30
2023-02-11T05:00:34.572Z,33.50
2023-02-11T05:01:38.134Z,33.10
2023-02-11T05:02:42.015Z,31.60
2023-02-11T05:03:45.800Z,35.10
2023-02-11T05:04:49.455Z,29.60
2023-02-11T05:05:53.435Z,30.20
2023-02-11T05:06:58.717Z,32.90
2023-02-11T05:08:02.437Z,29.30
2023-02-11T05:09:06.350Z,31.90
2023-02-11T05:10:09.941Z,33.20
2023-02-11T05:11:19.641Z,30.40
2023-02-11T05:12:23.227Z,31.00
2023-02-11T05:13:26.704Z,31.00
2023-02-11T05:14:30.208Z,31.60
2023-02-11T05:15:33.749Z,33.70
2023-02-11T05:16:37.308Z,32.90
2023-02-11T05:17:40.864Z,31.60
2023-02-11T05:18:45.318Z,31.20
2023-02-11T05:19:48.834Z,32.60
2023-02-11T05:20:52.386Z,32.00
2023-02-11T05:22:02.578Z,30.20
2023-02-11T05:24:10.342Z,27.00
2023-02-11T05:25:13.988Z,30.10
2023-02-11T05:26:18.674Z,29.20
2023-02-11T05:27:22.543Z,29.90
2023-02-11T05:28:26.283Z,33.90
2023-02-11T05:29:30.163Z,31.40
2023-02-11T05:30:33.688Z,33.20
2023-02-11T05:31:37.158Z,33.10
2023-02-11T05:32:40.748Z,30.50
2023-02-11T05:33:44.300Z,30.70
2023-02-11T05:34:47.957Z,33.70
2023-02-11T05:35:51.911Z,31.80
2023-02-11T05:36:55.979Z,32.00
2023-02-11T05:37:59.601Z,31.90
2023-02-11T05:39:03.532Z,32.10
2023-02-11T05:40:07.744Z,31.80
2023-02-11T05:41:12.077Z,32.70
2023-02-11T05:42:15.552Z,32.50
2023-02-11T05:43:19.040Z,34.30
2023-02-11T05:44:22.773Z,31.40
2023-02-11T05:45:26.413Z,31.40
2023-02-11T05:46:30.056Z,35.90
2023-02-11T05:47:33.973Z,30.70
2023-02-11T05:48:37.532Z,30.60
2023-02-11T05:49:41.176Z,28.30
2023-02-11T05:50:45.140Z,31.60
2023-02-11T05:51:49.233Z,31.80
2023-02-11T05:52:53.024Z,30.40
2023-02-11T05:53:56.682Z,29.20
2023-02-11T05:55:00.222Z,31.20
2023-02-11T05:58:11.956Z,24.70
2023-02-11T05:59:15.533Z,26.10
2023-02-11T06:00:19.319Z,25.20
2023-02-11T06:01:22.910Z,27.40
2023-02-11T06:02:26.471Z,27.00
2023-02-11T06:03:30.078Z,27.50
2023-02-11T06:04:34.855Z,28.30
2023-02-11T06:05:38.608Z,29.90
2023-02-11T06:06:42.179Z,29.60
2023-02-11T06:07:45.943Z,28.60
2023-02-11T06:08:49.470Z,30.10
2023-02-11T06:09:53.079Z,29.80
2023-02-11T06:10:56.673Z,29.80
2023-02-11T06:12:00.337Z,31.20
2023-02-11T06:13:04.084Z,27.80
2023-02-11T06:14:07.891Z,30.60
2023-02-11T06:15:11.823Z,32.30
2023-02-11T06:16:15.667Z,29.60
2023-02-11T06:17:19.320Z,22.80
2023-02-11T06:18:23.048Z,27.70
2023-02-11T06:19:26.858Z,30.10
2023-02-11T06:20:30.462Z,33.90
2023-02-11T06:21:43.521Z,30.70
2023-02-11T06:23:06.484Z,29.90
2023-02-11T06:24:10.155Z,27.20
2023-02-11T06:25:13.974Z,29.70
2023-02-11T06:26:24.619Z,30.40
2023-02-11T06:27:28.573Z,28.30
2023-02-11T06:28:33.004Z,28.00
2023-02-11T06:29:36.554Z,31.60
2023-02-11T06:30:40.069Z,29.20
2023-02-11T06:31:43.728Z,29.00
2023-02-11T06:32:47.555Z,28.10
2023-02-11T06:33:51.867Z,27.80
2023-02-11T06:34:55.844Z,31.70
2023-02-11T06:35:59.463Z,24.40
2023-02-11T06:37:03.067Z,28.60
2023-02-11T06:38:06.757Z,28.90
2023-02-11T06:39:12.366Z,26.90
2023-02-11T06:40:15.972Z,25.70
2023-02-11T06:41:22.935Z,28.20
2023-02-11T06:42:26.519Z,30.20
2023-02-11T06:43:30.030Z,28.00
2023-02-11T06:44:33.653Z,29.30
2023-02-11T06:45:37.141Z,28.70
2023-02-11T06:46:40.667Z,28.60
2023-02-11T06:47:44.253Z,28.60
2023-02-11T06:48:47.934Z,30.60
2023-02-11T06:49:51.506Z,28.00
2023-02-11T06:50:55.264Z,32.20
2023-02-11T06:51:58.826Z,22.50
2023-02-11T06:53:02.338Z,28.70
2023-02-11T06:54:07.160Z,26.80
2023-02-11T06:55:10.768Z,26.70
2023-02-11T06:56:19.277Z,28.40
2023-02-11T06:57:22.822Z,28.90
2023-02-11T06:58:26.364Z,28.80
2023-02-11T06:59:29.990Z,28.30
2023-02-11T07:00:33.659Z,26.30
2023-02-11T07:01:37.210Z,30.50
2023-02-11T07:02:41.315Z,28.70
2023-02-11T07:03:46.344Z,25.70
2023-02-11T07:04:50.007Z,27.90
2023-02-11T07:05:53.564Z,29.20
2023-02-11T07:06:58.064Z,30.50
2023-02-11T07:08:01.636Z,28.00
2023-02-11T07:09:05.427Z,26.10
2023-02-11T07:10:09.332Z,26.00
2023-02-11T07:11:20.616Z,31.30
2023-02-11T07:12:24.189Z,23.70
2023-02-11T07:13:27.956Z,27.20
2023-02-11T07:14:31.455Z,25.30
2023-02-11T07:15:37.344Z,25.80
2023-02-11T07:16:41.125Z,28.80
2023-02-11T07:17:44.672Z,24.40
2023-02-11T07:18:48.987Z,29.40
2023-02-11T07:19:52.507Z,31.00
2023-02-11T07:20:56.036Z,28.80
2023-02-11T07:21:59.616Z,28.90
2023-02-11T07:23:03.146Z,31.00
2023-02-11T07:24:10.883Z,29.00
2023-02-11T07:25:15.854Z,24.60
2023-02-11T07:27:26.073Z,24.50
2023-02-11T07:28:31.136Z,26.70
2023-02-11T07:29:34.818Z,26.50
2023-02-11T07:30:38.375Z,27.50
2023-02-11T07:31:42.160Z,29.50
2023-02-11T07:32:46.119Z,28.80
2023-02-11T07:33:51.593Z,27.20
2023-02-11T07:34:55.454Z,24.40
2023-02-11T07:36:03.174Z,26.00
2023-02-11T07:37:06.753Z,26.80
2023-02-11T07:38:10.285Z,30.40
2023-02-11T07:39:13.883Z,29.10
2023-02-11T07:40:17.506Z,29.10
2023-02-11T07:41:22.737Z,23.00
2023-02-11T07:42:26.318Z,28.80
2023-02-11T07:43:31.165Z,27.90
2023-02-11T07:44:35.087Z,28.40
2023-02-11T07:45:40.763Z,31.90
2023-02-11T07:46:45.318Z,27.40
2023-02-11T07:48:52.711Z,26.80
2023-02-11T07:49:56.763Z,28.50
2023-02-11T07:51:24.968Z,23.70
2023-02-11T07:52:31.320Z,23.80
2023-02-11T07:53:35.076Z,27.30
2023-02-11T07:54:38.666Z,23.00
2023-02-11T07:55:45.452Z,27.80
2023-02-11T07:56:49.021Z,31.40
2023-02-11T07:57:52.576Z,27.30
2023-02-11T07:58:59.702Z,25.10
2023-02-11T08:00:05.333Z,26.50
2023-02-11T08:02:20.189Z,24.00
2023-02-11T08:03:23.890Z,30.70
2023-02-11T08:04:27.516Z,28.80
2023-02-11T08:05:31.049Z,28.10
2023-02-11T08:06:35.718Z,25.60
2023-02-11T08:08:43.459Z,22.40
2023-02-11T08:09:47.445Z,26.50
2023-02-11T08:10:51.408Z,27.80
2023-02-11T08:11:55.234Z,29.10
2023-02-11T08:12:58.924Z,28.20
2023-02-11T08:14:02.535Z,25.80
2023-02-11T08:15:06.482Z,29.20
2023-02-11T08:16:16.961Z,26.20
2023-02-11T08:17:20.683Z,29.50
2023-02-11T08:18:24.200Z,26.70
2023-02-11T08:19:27.668Z,27.40
2023-02-11T08:20:31.146Z,28.10
2023-02-11T08:21:34.804Z,27.70
2023-02-11T08:22:38.355Z,27.70
2023-02-11T08:23:43.323Z,27.50
2023-02-11T08:24:46.858Z,28.20
2023-02-11T08:25:50.711Z,29.30
2023-02-11T08:26:54.286Z,28.40
2023-02-11T08:27:58.363Z,31.20
2023-02-11T08:29:10.130Z,26.90
2023-02-11T08:30:14.430Z,28.60
2023-02-11T08:31:27.433Z,29.00
2023-02-11T08:32:31.145Z,25.70
2023-02-11T08:33:35.196Z,27.80
2023-02-11T08:34:39.597Z,24.50
2023-02-11T08:35:43.084Z,27.00
2023-02-11T08:36:47.942Z,25.40
2023-02-11T08:37:52.274Z,26.40
2023-02-11T08:39:08.599Z,30.50
2023-02-11T08:40:20.172Z,27.50
2023-02-11T08:41:23.689Z,27.00
2023-02-11T08:42:27.193Z,28.20
2023-02-11T08:43:30.783Z,29.50
2023-02-11T08:44:34.343Z,27.20
2023-02-11T08:45:37.833Z,29.30
2023-02-11T08:46:41.362Z,31.70
2023-02-11T08:47:45.281Z,29.70
2023-02-11T08:48:49.425Z,28.80
2023-02-11T08:49:53.048Z,28.60
2023-02-11T08:50:57.737Z,26.40
2023-02-11T08:52:04.173Z,30.90
2023-02-11T08:53:07.647Z,26.60
2023-02-11T08:54:11.610Z,29.70
2023-02-11T08:55:15.079Z,31.70
2023-02-11T08:56:20.716Z,28.70
2023-02-11T08:57:24.746Z,31.80
2023-02-11T08:58:28.340Z,31.00
2023-02-11T08:59:31.917Z,31.30
2023-02-11T09:00:35.507Z,27.90
2023-02-11T09:01:39.431Z,31.70
2023-02-11T09:02:43.137Z,30.90
2023-02-11T09:03:47.084Z,27.80
2023-02-11T09:04:50.607Z,26.30
2023-02-11T09:05:54.782Z,27.70
2023-02-11T09:06:58.394Z,28.50
2023-02-11T09:08:01.868Z,29.80
2023-02-11T09:09:05.538Z,31.50
2023-02-11T09:10:09.601Z,26.60
2023-02-11T09:11:13.482Z,28.40
2023-02-11T09:12:17.011Z,26.40
2023-02-11T09:13:20.489Z,30.70
2023-02-11T09:14:26.138Z,27.70
2023-02-11T09:15:29.813Z,26.80
2023-02-11T09:16:36.221Z,28.60
2023-02-11T09:17:40.165Z,32.90
2023-02-11T09:18:45.663Z,32.80
2023-02-11T09:19:49.211Z,31.00
2023-02-11T09:20:53.061Z,34.80
2023-02-11T09:21:57.001Z,32.60
2023-02-11T09:23:00.600Z,33.60
2023-02-11T09:24:06.449Z,29.70
2023-02-11T09:25:11.020Z,28.50
2023-02-11T09:27:17.946Z,25.00
2023-02-11T09:28:22.030Z,29.80
2023-02-11T09:29:25.680Z,31.20
2023-02-11T09:30:29.282Z,28.90
2023-02-11T09:31:34.022Z,33.00
2023-02-11T09:32:37.757Z,29.60
2023-02-11T09:33:47.678Z,29.50
2023-02-11T09:34:51.229Z,30.70
2023-02-11T09:35:54.758Z,29.00
2023-02-11T09:36:58.262Z,29.10
2023-02-11T09:38:01.761Z,31.70
2023-02-11T09:39:08.812Z,33.80
2023-02-11T09:40:14.637Z,32.10
2023-02-11T09:41:24.323Z,29.10
2023-02-11T09:42:40.026Z,29.50
2023-02-11T09:43:47.925Z,29.60
2023-02-11T09:44:52.327Z,31.30
2023-02-11T09:45:56.841Z,35.40
2023-02-11T09:48:17.346Z,26.50
2023-02-11T09:49:30.506Z,31.10
2023-02-11T09:50:36.718Z,29.30
2023-02-11T09:52:00.312Z,28.40
2023-02-11T09:53:11.659Z,26.90
2023-02-11T09:54:30.313Z,28.20
2023-02-11T09:55:39.559Z,26.20
2023-02-11T09:56:43.168Z,25.50
2023-02-11T09:57:46.984Z,25.40
2023-02-11T09:58:50.556Z,30.60
2023-02-11T09:59:54.416Z,31.10
2023-02-11T10:01:01.058Z,29.50
2023-02-11T10:02:21.266Z,29.90
2023-02-11T10:03:50.653Z,28.90
2023-02-11T10:05:16.037Z,29.10
2023-02-11T10:06:27.755Z,30.40
2023-02-11T10:07:35.766Z,27.80
2023-02-11T10:08:57.549Z,30.30
2023-02-11T10:10:07.612Z,35.10
2023-02-11T10:11:31.192Z,28.90
2023-02-11T10:12:54.307Z,29.90
2023-02-11T10:14:03.921Z,30.60
2023-02-11T10:15:14.077Z,28.50
2023-02-11T10:16:41.762Z,30.90
2023-02-11T10:17:56.366Z,25.90
2023-02-11T10:19:25.266Z,29.90
2023-02-11T10:20:46.576Z,28.60
2023-02-11T10:21:58.928Z,30.70
2023-02-11T10:23:37.579Z,28.00
2023-02-11T10:24:44.446Z,29.10
2023-02-11T10:25:54.508Z,30.90
2023-02-11T10:26:58.665Z,30.90
2023-02-11T10:28:12.455Z,31.20
2023-02-11T10:29:40.082Z,30.50
2023-02-11T10:30:52.632Z,32.80
2023-02-11T10:31:58.767Z,31.80
2023-02-11T10:33:36.796Z,31.00
2023-02-11T10:34:41.783Z,34.10
2023-02-11T10:35:45.683Z,31.00
2023-02-11T10:36:49.246Z,32.00
2023-02-11T10:38:11.595Z,30.50
2023-02-11T10:39:20.998Z,28.90
2023-02-11T10:40:27.961Z,29.70
2023-02-11T10:41:36.664Z,31.90
2023-02-11T10:42:43.895Z,31.40
2023-02-11T10:43:47.762Z,33.20
2023-02-11T10:45:00.542Z,30.90
2023-02-11T10:46:05.487Z,29.10
2023-02-11T10:47:25.123Z,30.50
2023-02-11T10:48:51.420Z,27.50
2023-02-11T10:49:54.955Z,30.10
2023-02-11T10:51:47.515Z,32.30
2023-02-11T10:52:51.399Z,29.70
2023-02-11T10:54:03.559Z,30.10
2023-02-11T10:55:09.984Z,28.00
2023-02-11T10:56:27.719Z,27.60
2023-02-11T10:58:01.557Z,30.50
2023-02-11T10:59:15.623Z,26.70
2023-02-11T11:00:39.987Z,29.70
2023-02-11T11:01:53.133Z,25.90
2023-02-11T11:02:59.603Z,26.50
2023-02-11T11:04:03.453Z,28.20
2023-02-11T11:05:17.069Z,29.80
2023-02-11T11:06:33.697Z,28.90
2023-02-11T11:07:37.374Z,27.50
2023-02-11T11:08:43.899Z,25.70
2023-02-11T11:10:02.320Z,31.40
2023-02-11T11:11:10.876Z,31.90
2023-02-11T11:12:31.711Z,30.50
2023-02-11T11:13:38.349Z,29.60
2023-02-11T11:14:47.412Z,27.60
2023-02-11T11:16:12.632Z,28.90
2023-02-11T11:17:18.850Z,27.90
2023-02-11T11:18:23.560Z,26.90
2023-02-11T11:19:27.644Z,27.50
2023-02-11T11:20:36.442Z,29.60
2023-02-11T11:21:49.316Z,28.70
2023-02-11T11:23:21.398Z,26.00
2023-02-11T11:24:33.405Z,27.40
2023-02-11T11:25:41.260Z,29.30
2023-02-11T11:26:48.569Z,25.10
2023-02-11T11:27:55.765Z,31.00
2023-02-11T11:29:06.669Z,23.70
2023-02-11T11:31:24.218Z,27.10
2023-02-11T11:32:32.428Z,28.20
2023-02-11T11:33:36.757Z,27.80
2023-02-11T11:34:42.476Z,32.80
2023-02-11T11:36:11.340Z,29.20
2023-02-11T11:37:23.509Z,30.40
2023-02-11T11:38:30.013Z,31.60
2023-02-11T11:39:35.124Z,28.90
2023-02-11T11:40:38.628Z,26.50
2023-02-11T11:41:51.564Z,26.00
2023-02-11T11:43:13.071Z,28.30
2023-02-11T11:44:25.740Z,25.90
2023-02-11T11:45:29.336Z,26.20
2023-02-11T11:46:40.508Z,30.70
2023-02-11T11:47:58.732Z,28.40
2023-02-11T11:49:17.518Z,28.90
2023-02-11T11:50:27.708Z,27.60
2023-02-11T11:51:33.683Z,29.70
2023-02-11T11:52:50.230Z,29.30
2023-02-11T11:54:08.505Z,29.80
2023-02-11T11:55:20.684Z,28.90
2023-02-11T11:56:30.458Z,27.00
2023-02-11T11:57:37.700Z,26.60
2023-02-11T11:58:41.316Z,27.40
2023-02-11T11:59:45.615Z,28.80
2023-02-11T12:00:56.104Z,29.50
2023-02-11T12:02:23.613Z,27.00
2023-02-11T12:04:03.763Z,28.00
2023-02-11T12:05:23.541Z,30.20
2023-02-11T12:07:04.777Z,29.40
2023-02-11T12:08:11.075Z,26.40
2023-02-11T12:09:23.643Z,29.30
2023-02-11T12:11:09.318Z,30.30
2023-02-11T12:12:35.529Z,26.80
2023-02-11T12:14:00.510Z,24.70
2023-02-11T12:15:28.948Z,28.10
2023-02-11T12:17:04.848Z,29.20
2023-02-11T12:18:24.586Z,36.80
2023-02-11T12:20:07.901Z,35.60
2023-02-11T12:21:49.378Z,27.90
2023-02-11T12:23:00.201Z,26.10
2023-02-11T12:24:07.167Z,28.40
2023-02-11T12:25:49.322Z,29.10
2023-02-11T12:27:10.342Z,25.50
2023-02-11T12:28:56.863Z,25.50
2023-02-11T12:30:09.169Z,25.50
2023-02-11T12:31:44.251Z,28.80
2023-02-11T12:33:06.123Z,27.40
2023-02-11T12:34:24.743Z,32.10
2023-02-11T12:36:06.938Z,28.20
2023-02-11T12:37:26.510Z,29.10
2023-02-11T12:38:38.956Z,29.30
2023-02-11T12:40:16.722Z,27.20
2023-02-11T12:42:10.629Z,27.30
2023-02-11T12:43:19.574Z,24.10
2023-02-11T12:45:00.721Z,26.70
2023-02-11T12:46:11.814Z,23.80
2023-02-11T12:47:30.201Z,27.00
2023-02-11T12:49:03.868Z,25.30
2023-02-11T12:50:19.282Z,30.00
2023-02-11T12:51:28.806Z,25.20
2023-02-11T12:52:44.455Z,28.70
2023-02-11T12:54:14.362Z,29.30
2023-02-11T12:55:23.141Z,29.20
2023-02-11T12:56:38.904Z,30.60
2023-02-11T12:57:44.249Z,27.60
2023-02-11T12:58:52.435Z,27.20
2023-02-11T13:00:14.880Z,28.40
2023-02-11T13:01:27.100Z,27.90
2023-02-11T13:02:45.689Z,29.60
2023-02-11T13:03:57.250Z,23.30
2023-02-11T13:05:26.742Z,26.20
2023-02-11T13:06:39.476Z,25.90
2023-02-11T13:07:46.358Z,26.50
2023-02-11T13:08:58.492Z,25.30
2023-02-11T13:10:11.174Z,22.50
2023-02-11T13:11:22.971Z,25.50
2023-02-11T13:13:07.809Z,24.40
2023-02-11T13:14:16.420Z,23.50
2023-02-11T13:15:19.936Z,24.70
2023-02-11T13:16:40.991Z,26.00
2023-02-11T13:17:54.733Z,25.30
2023-02-11T13:19:13.262Z,22.90
2023-02-11T13:20:32.882Z,23.00
2023-02-11T13:21:42.453Z,23.30
2023-02-11T13:22:59.238Z,23.90
2023-02-11T13:24:22.737Z,21.20
2023-02-11T13:25:54.956Z,23.80
2023-02-11T13:27:17.798Z,26.60
2023-02-11T13:28:44.369Z,22.30
2023-02-11T13:30:11.765Z,24.60
2023-02-11T13:31:16.775Z,19.80
2023-02-11T13:32:20.471Z,21.30
2023-02-11T13:33:36.111Z,24.20
2023-02-11T13:34:42.654Z,22.70
2023-02-11T13:36:06.099Z,25.50
2023-02-11T13:37:22.847Z,20.80
2023-02-11T13:38:30.990Z,19.90
2023-02-11T13:39:34.510Z,22.20
2023-02-11T13:40:39.736Z,20.80
2023-02-11T13:41:45.977Z,21.20
2023-02-11T13:42:54.335Z,19.80
2023-02-11T13:44:04.381Z,20.90
2023-02-11T13:45:27.605Z,26.80
2023-02-11T13:46:54.263Z,23.40
2023-02-11T13:48:13.946Z,19.50
2023-02-11T13:49:20.847Z,19.90
2023-02-11T13:50:26.243Z,22.50
2023-02-11T13:51:38.903Z,19.80
2023-02-11T13:52:42.721Z,21.60
2023-02-11T13:53:54.582Z,19.90
2023-02-11T13:55:07.565Z,22.30
2023-02-11T13:56:35.552Z,23.30
2023-02-11T13:57:41.570Z,18.70
2023-02-11T13:58:49.940Z,23.30
2023-02-11T13:59:54.758Z,21.00
2023-02-11T14:00:58.520Z,22.80
2023-02-11T14:02:51.768Z,23.60
2023-02-11T14:04:43.587Z,22.40
2023-02-11T14:06:28.496Z,19.70
2023-02-11T14:07:52.086Z,20.10
2023-02-11T14:09:11.336Z,24.00
2023-02-11T14:10:42.864Z,20.90
2023-02-11T14:11:55.219Z,20.40
2023-02-11T14:13:17.758Z,19.90
2023-02-11T14:14:24.218Z,18.10
2023-02-11T14:15:38.933Z,23.60
2023-02-11T14:17:07.237Z,19.80
2023-02-11T14:18:36.946Z,20.00
2023-02-11T14:19:46.067Z,21.50
2023-02-11T14:20:50.195Z,21.60
2023-02-11T14:22:11.792Z,21.00
2023-02-11T14:23:27.073Z,19.00
2023-02-11T14:24:33.860Z,20.30
2023-02-11T14:25:38.512Z,22.60
2023-02-11T14:27:20.608Z,22.50
2023-02-11T14:28:35.528Z,21.20
2023-02-11T14:30:05.042Z,20.80
2023-02-11T14:31:18.293Z,20.70
2023-02-11T14:32:48.136Z,22.40
2023-02-11T14:34:25.480Z,19.80
2023-02-11T14:35:40.915Z,20.60
2023-02-11T14:37:05.673Z,22.60
2023-02-11T14:38:34.261Z,19.10
2023-02-11T14:40:14.845Z,23.30
2023-02-11T14:41:26.285Z,20.50
2023-02-11T14:42:31.127Z,22.80
2023-02-11T14:43:40.453Z,23.20
2023-02-11T14:44:44.510Z,24.20
2023-02-11T14:45:53.765Z,22.20
2023-02-11T14:46:58.033Z,22.40
2023-02-11T14:48:08.309Z,25.10
2023-02-11T14:49:21.106Z,24.40
2023-02-11T14:50:34.721Z,23.40
2023-02-11T14:51:41.370Z,19.40
2023-02-11T14:52:45.423Z,19.80
2023-02-11T14:53:55.669Z,19.40
2023-02-11T14:55:12.680Z,20.50
2023-02-11T14:56:24.573Z,22.10
2023-02-11T14:57:28.109Z,21.90
2023-02-11T14:58:32.921Z,22.50
2023-02-11T14:59:36.703Z,21.90
2023-02-11T15:01:08.891Z,21.50
2023-02-11T15:02:29.800Z,19.80
2023-02-11T15:03:36.460Z,20.90
2023-02-11T15:04:42.040Z,21.30
2023-02-11T15:05:45.619Z,19.20
2023-02-11T15:06:49.902Z,18.60
2023-02-11T15:07:59.340Z,21.90
2023-02-11T15:09:42.615Z,19.70
2023-02-11T15:10:48.307Z,21.80
2023-02-11T15:11:52.345Z,18.10